Alma, AR

2:53 PM CDT on September 19, 2014 (GMT -0500)
KARVANBU2 | Change Station
CLOSE
Current Station
Personal Weather Station
Location: Van Buren, AR
Elevation: 509 ft
Nearby Weather Stations

Elev 509 ft 35.48 °N, 94.36 °W | Updated 5 seconds ago

Clear
Clear
86.7 °F
Feels Like 83 °F
N
0.0
Wind Variable Wind from SSE
Gusts 0.0 mph

Today
High -- | Low -- °F
--% Chance of Precip.
Yesterday
High -- | Low -- °F
Precip. -- in
7:02 AM 7:18 PM
Waning Crescent, 17% visible
Pressure 29.99 in
Visibility 10.0 miles
Clouds Mostly Cloudy 2300 ft
Heat Index 83 °F
Dew Point 42 °F
Humidity 21%
Rainfall 0.00 in
Snow Depth Not available.
UV 5 out of 12
Pollen 9.70 out of 12
Air Quality Not available.
Flu Activity Not available.
METAR KFSM 191853Z 09005KT 10SM BKN023 27/19 A3000 RMK AO2 SLP155 T02720194

More Conditions Fewer Conditions

Pressure 29.99 in
Visibility 10.0 miles
Clouds Mostly Cloudy 2300 ft
Heat Index 83 °F
Dew Point 42 °F
Humidity 21%
Rainfall 0.00 in
Snow Depth Not available.
UV 5 out of 12
Pollen 9.70 out of 12
Air Quality Not available.
Flu Activity Not available.
METAR KFSM 191853Z 09005KT 10SM BKN023 27/19 A3000 RMK AO2 SLP155 T02720194

More Conditions Fewer Conditions

10-Day Weather Forecast

Almanac

Astronomy

Sep. 19, 2014 Rise Set
Actual Time 7:02 AM CDT 7:18 PM CDT
Civil Twilight 6:37 AM CDT 7:43 PM CDT
Nautical Twilight 6:07 AM CDT 8:13 PM CDT
Astronomical Twilight 5:37 AM CDT 8:43 PM CDT
Moon 2:55 AM CDT 4:41 PM CDT
Length of Visible Light 13h 06m
Length of Day
12h 15m
Tomorrow will be 2m 14s shorter.
Waning Crescent, 17% of the Moon is Illuminated
Today
Waning Crescent
Sep 24
New
Oct 1
First Quarter
Oct 8
Full
Oct 15
Last Quarter

Today's Extremes

State Highs State Lows

Community

WunderPhotos

Upload Photos

1,754,687 photos uploaded!

WunderBlogs® & News

By Dr. Jeff Masters
Director of Meteorology, Weather Underground
By Kari Strenfel
Meteorologist, Weather Underground
By Christopher C. Burt
Weather Historian, Weather Underground
September 19, 2014
September 19, 2014
September 19, 2014

Nearby

Snow Depth

Station Depth Elevation
No new snow has been reported.

Earthquake Activity

City Distance Mag. Time & Date
No recent earthquake activity has been reported nearby.
Minimum magnitude displayed is 2.5.

Coastal Water Temperatures

Place Temperature
No Stations Reporting

Nearby Weather Stations